createdAt,value
2018-09-05T00:01:20.925Z,86.77
2018-09-05T00:03:50.450Z,86.34
2018-09-05T00:06:26.380Z,86.63
2018-09-05T00:08:55.545Z,86.57
2018-09-05T00:11:24.831Z,86.01
2018-09-05T00:13:53.977Z,86.51
2018-09-05T00:16:23.105Z,86.22
2018-09-05T00:18:52.253Z,86.30
2018-09-05T00:21:21.384Z,86.29
2018-09-05T00:23:50.533Z,86.36
2018-09-05T00:26:19.687Z,87.04
2018-09-05T00:28:51.685Z,87.18
2018-09-05T00:31:20.813Z,86.93
2018-09-05T00:33:49.946Z,87.25
2018-09-05T00:36:19.091Z,86.69
2018-09-05T00:38:48.222Z,86.24
2018-09-05T00:41:17.361Z,85.94
2018-09-05T00:43:46.498Z,85.68
2018-09-05T00:46:15.632Z,85.81
2018-09-05T00:48:44.761Z,86.34
2018-09-05T00:51:13.890Z,85.71
2018-09-05T00:53:43.017Z,85.65
2018-09-05T00:56:12.161Z,85.44
2018-09-05T00:58:41.286Z,85.96
2018-09-05T01:01:10.453Z,86.04
2018-09-05T01:03:39.641Z,86.56
2018-09-05T01:06:08.825Z,86.94
2018-09-05T01:08:37.952Z,86.66
2018-09-05T01:11:07.076Z,87.12
2018-09-05T01:13:36.225Z,87.12
2018-09-05T01:16:05.582Z,86.61
2018-09-05T01:18:34.777Z,86.70
2018-09-05T01:21:03.909Z,87.14
2018-09-05T01:23:33.057Z,86.50
2018-09-05T01:26:02.189Z,86.16
2018-09-05T01:28:31.333Z,86.79
2018-09-05T01:31:00.497Z,86.66
2018-09-05T01:33:29.644Z,86.51
2018-09-05T01:36:04.002Z,86.81
2018-09-05T01:38:33.142Z,87.62
2018-09-05T01:41:02.276Z,85.93
2018-09-05T01:43:31.417Z,86.84
2018-09-05T01:46:00.614Z,86.30
2018-09-05T01:48:29.740Z,86.97
2018-09-05T01:50:58.860Z,86.95
2018-09-05T01:53:27.989Z,86.32
2018-09-05T01:55:57.217Z,86.72
2018-09-05T01:58:26.361Z,86.19
2018-09-05T02:00:55.509Z,86.14
2018-09-05T02:03:24.649Z,86.91
2018-09-05T02:05:53.817Z,86.52
2018-09-05T02:08:22.954Z,86.36
2018-09-05T02:10:52.053Z,86.24
2018-09-05T02:13:21.177Z,86.23
2018-09-05T02:15:50.317Z,86.12
2018-09-05T02:18:19.445Z,86.66
2018-09-05T02:20:48.585Z,86.84
2018-09-05T02:23:17.839Z,86.11
2018-09-05T02:25:46.990Z,85.86
2018-09-05T02:28:16.097Z,86.42
2018-09-05T02:30:45.225Z,86.10
2018-09-05T02:33:14.357Z,86.19
2018-09-05T02:35:43.477Z,86.87
2018-09-05T02:38:12.605Z,86.79
2018-09-05T02:40:41.762Z,86.58
2018-09-05T02:43:10.857Z,86.09
2018-09-05T02:45:39.992Z,86.09
2018-09-05T02:48:09.122Z,86.37
2018-09-05T02:50:38.253Z,86.45
2018-09-05T02:53:07.368Z,86.21
2018-09-05T02:55:41.831Z,86.32
2018-09-05T02:58:10.953Z,86.38
2018-09-05T03:00:40.101Z,86.89
2018-09-05T03:03:09.237Z,87.08
2018-09-05T03:05:38.356Z,87.04
2018-09-05T03:08:07.481Z,87.31
2018-09-05T03:10:36.618Z,87.10
2018-09-05T03:13:06.130Z,87.36
2018-09-05T03:15:35.269Z,86.91
2018-09-05T03:18:04.442Z,86.39
2018-09-05T03:20:33.560Z,86.72
2018-09-05T03:23:02.689Z,86.92
2018-09-05T03:25:31.834Z,86.78
2018-09-05T03:28:00.977Z,86.51
2018-09-05T03:30:30.113Z,86.40
2018-09-05T03:32:59.271Z,86.61
2018-09-05T03:35:28.405Z,86.48
2018-09-05T03:37:57.550Z,87.28
2018-09-05T03:40:26.681Z,86.95
2018-09-05T03:42:55.821Z,87.88
2018-09-05T03:45:24.986Z,87.67
2018-09-05T03:47:54.116Z,87.01
2018-09-05T03:50:23.238Z,87.14
2018-09-05T03:52:52.377Z,87.02
2018-09-05T03:55:21.865Z,86.89
2018-09-05T03:57:50.994Z,87.17
2018-09-05T04:00:20.144Z,86.48
2018-09-05T04:02:49.293Z,86.88
2018-09-05T04:05:18.453Z,87.28
2018-09-05T04:07:47.669Z,87.17
2018-09-05T04:10:16.797Z,87.49
2018-09-05T04:12:45.934Z,86.82
2018-09-05T04:15:15.070Z,86.87
2018-09-05T04:17:44.237Z,86.60
2018-09-05T04:20:13.401Z,86.98
2018-09-05T04:22:49.273Z,87.03
2018-09-05T04:25:18.396Z,86.99
2018-09-05T04:27:47.533Z,87.03
2018-09-05T04:30:16.701Z,86.97
2018-09-05T04:32:46.186Z,87.43
2018-09-05T04:35:15.322Z,86.91
2018-09-05T04:37:44.458Z,87.06
2018-09-05T04:40:13.594Z,87.46
2018-09-05T04:42:42.732Z,87.11
2018-09-05T04:45:11.932Z,87.79
2018-09-05T04:47:41.013Z,87.37
2018-09-05T04:50:10.146Z,87.49
2018-09-05T04:52:39.318Z,86.79
2018-09-05T04:55:08.409Z,86.57
2018-09-05T04:57:37.553Z,86.08
2018-09-05T05:00:06.678Z,86.56
2018-09-05T05:02:35.867Z,86.45
2018-09-05T05:05:05.137Z,86.57
2018-09-05T05:07:34.269Z,86.29
2018-09-05T05:10:03.466Z,87.32
2018-09-05T05:12:32.671Z,87.62
2018-09-05T05:15:01.727Z,86.52
2018-09-05T05:17:30.862Z,86.68
2018-09-05T05:20:00.001Z,85.93
2018-09-05T05:22:29.137Z,86.87
2018-09-05T05:24:58.285Z,86.77
2018-09-05T05:27:27.421Z,86.28
2018-09-05T05:29:56.553Z,85.59
2018-09-05T05:32:26.159Z,86.21
2018-09-05T05:34:55.265Z,86.05
2018-09-05T05:37:24.365Z,85.79
2018-09-05T05:39:53.628Z,85.45
2018-09-05T05:42:22.750Z,85.22
2018-09-05T05:44:51.885Z,84.61
2018-09-05T05:47:21.020Z,85.50
2018-09-05T05:49:50.155Z,84.82
2018-09-05T05:52:19.585Z,85.54
2018-09-05T05:54:48.709Z,85.21
2018-09-05T05:57:17.837Z,84.71
2018-09-05T05:59:46.993Z,84.76
2018-09-05T06:02:16.112Z,85.04
2018-09-05T06:04:45.421Z,84.31
2018-09-05T06:07:14.552Z,84.51
2018-09-05T06:09:43.670Z,84.88
2018-09-05T06:12:12.936Z,85.53
2018-09-05T06:14:41.975Z,84.99
2018-09-05T06:17:11.109Z,84.60
2018-09-05T06:19:40.254Z,84.08
2018-09-05T06:22:09.397Z,84.10
2018-09-05T06:24:38.525Z,84.14
2018-09-05T06:27:07.656Z,83.65
2018-09-05T06:29:36.809Z,82.73
2018-09-05T06:32:05.937Z,82.70
2018-09-05T06:34:35.083Z,82.37
2018-09-05T06:37:04.201Z,83.27
2018-09-05T06:39:33.349Z,82.72
2018-09-05T06:42:02.457Z,83.18
2018-09-05T06:44:31.606Z,81.32
2018-09-05T06:47:00.869Z,81.19
2018-09-05T06:49:29.993Z,80.48
2018-09-05T06:51:59.139Z,80.06
2018-09-05T06:54:28.257Z,80.13
2018-09-05T06:56:57.704Z,79.67
2018-09-05T06:59:26.877Z,82.23
2018-09-05T07:01:55.996Z,81.00
2018-09-05T07:04:25.423Z,80.89
2018-09-05T07:06:54.657Z,80.99
2018-09-05T07:09:23.740Z,79.78
2018-09-05T07:11:52.873Z,79.82
2018-09-05T07:14:22.067Z,79.33
2018-09-05T07:16:51.288Z,77.15
2018-09-05T07:19:20.414Z,77.71
2018-09-05T07:21:49.527Z,77.83
2018-09-05T07:24:18.665Z,78.54
2018-09-05T07:26:47.806Z,78.06
2018-09-05T07:29:16.945Z,76.64
2018-09-05T07:31:46.081Z,77.26
2018-09-05T07:34:15.197Z,77.32
2018-09-05T07:36:44.333Z,76.30
2018-09-05T07:39:13.530Z,75.45
2018-09-05T07:41:42.659Z,75.68
2018-09-05T07:44:11.777Z,74.61
2018-09-05T07:46:40.933Z,74.72
2018-09-05T07:49:10.757Z,74.80
2018-09-05T07:51:39.893Z,74.54
2018-09-05T07:54:09.017Z,74.77
2018-09-05T07:56:38.178Z,71.76
2018-09-05T07:59:07.309Z,71.64
2018-09-05T08:01:36.447Z,70.95
2018-09-05T08:04:05.570Z,71.81
2018-09-05T08:06:34.702Z,72.50
2018-09-05T08:09:05.353Z,71.21
2018-09-05T08:11:34.482Z,70.50
2018-09-05T08:14:03.717Z,70.58
2018-09-05T08:16:32.905Z,71.84
2018-09-05T08:19:02.078Z,68.40
2018-09-05T08:21:31.197Z,69.32
2018-09-05T08:24:00.331Z,69.16
2018-09-05T08:26:29.513Z,70.23
2018-09-05T08:28:58.686Z,70.30
2018-09-05T08:31:27.873Z,70.24
2018-09-05T08:33:57.025Z,66.47
2018-09-05T08:36:26.523Z,67.08
2018-09-05T08:38:55.336Z,67.07
2018-09-05T08:41:24.474Z,67.57
2018-09-05T08:43:53.646Z,66.09
2018-09-05T08:46:22.695Z,64.97
2018-09-05T08:48:51.804Z,66.53
2018-09-05T08:51:20.962Z,66.26
2018-09-05T08:53:50.672Z,66.73
2018-09-05T08:56:19.901Z,64.41
2018-09-05T08:58:48.994Z,64.61
2018-09-05T09:01:18.120Z,65.00
2018-09-05T09:03:47.296Z,63.88
2018-09-05T09:06:16.424Z,63.31
2018-09-05T09:08:45.537Z,63.85
2018-09-05T09:11:14.669Z,62.07
2018-09-05T09:13:43.790Z,63.75
2018-09-05T09:16:12.917Z,62.91
2018-09-05T09:18:42.380Z,61.86
2018-09-05T09:21:11.519Z,62.87
2018-09-05T09:23:40.643Z,65.11
2018-09-05T09:26:16.620Z,63.95
2018-09-05T09:28:45.744Z,62.39
2018-09-05T09:31:14.882Z,62.66
2018-09-05T09:33:44.117Z,60.92
2018-09-05T09:36:13.250Z,61.02
2018-09-05T09:38:42.373Z,59.81
2018-09-05T09:41:11.513Z,62.83
2018-09-05T09:43:40.657Z,61.96
2018-09-05T09:46:09.781Z,60.33
2018-09-05T09:48:38.916Z,60.30
2018-09-05T09:51:08.401Z,62.50
2018-09-05T09:53:37.540Z,61.55
2018-09-05T09:56:06.805Z,60.08
2018-09-05T09:58:35.944Z,58.28
2018-09-05T10:01:10.342Z,60.86
2018-09-05T10:03:44.928Z,59.22
2018-09-05T10:06:19.183Z,59.85
2018-09-05T10:08:53.734Z,59.88
2018-09-05T10:11:28.218Z,59.79
2018-09-05T10:14:02.569Z,60.75
2018-09-05T10:16:37.007Z,57.82
2018-09-05T10:19:08.378Z,59.93
2018-09-05T10:21:37.569Z,60.92
2018-09-05T10:24:06.701Z,60.97
2018-09-05T10:26:35.910Z,59.20
2018-09-05T10:29:05.062Z,59.43
2018-09-05T10:31:34.225Z,58.09
2018-09-05T10:34:03.393Z,59.15
2018-09-05T10:36:32.700Z,60.25
2018-09-05T10:39:01.841Z,55.96
2018-09-05T10:41:30.969Z,56.90
2018-09-05T10:44:00.114Z,59.06
2018-09-05T10:46:29.237Z,59.12
2018-09-05T10:48:58.382Z,59.44
2018-09-05T10:51:32.842Z,57.33
2018-09-05T10:54:01.995Z,58.09
2018-09-05T10:56:31.137Z,58.13
2018-09-05T10:59:00.282Z,59.71
2018-09-05T11:01:29.441Z,58.81
2018-09-05T11:03:58.961Z,60.67
2018-09-05T11:06:28.097Z,59.19
2018-09-05T11:08:57.233Z,57.94
2018-09-05T11:11:26.383Z,57.25
2018-09-05T11:13:55.545Z,56.90
2018-09-05T11:16:24.948Z,57.76
2018-09-05T11:19:25.102Z,57.79
2018-09-05T11:21:54.246Z,56.24
2018-09-05T11:24:23.423Z,55.69
2018-09-05T11:26:52.570Z,56.34
2018-09-05T11:29:21.733Z,55.89
2018-09-05T11:31:50.890Z,58.09
2018-09-05T11:34:20.053Z,56.64
2018-09-05T11:36:49.203Z,56.65
2018-09-05T11:39:18.320Z,56.99
2018-09-05T11:41:47.468Z,59.48
2018-09-05T11:44:16.849Z,56.62
2018-09-05T11:46:45.998Z,56.26
2018-09-05T11:49:15.137Z,57.89
2018-09-05T11:51:44.281Z,59.52
2018-09-05T11:54:13.421Z,59.12
2018-09-05T11:56:42.569Z,60.76
2018-09-05T11:59:11.708Z,61.03
2018-09-05T12:01:40.861Z,61.05
2018-09-05T12:04:10.181Z,58.39
2018-09-05T12:06:39.309Z,58.12
2018-09-05T12:09:11.179Z,57.99
2018-09-05T12:11:40.373Z,56.88
2018-09-05T12:14:10.204Z,57.72
2018-09-05T12:16:39.472Z,58.07
2018-09-05T12:19:08.903Z,58.40
2018-09-05T12:21:38.033Z,58.11
2018-09-05T12:24:07.166Z,57.04
2018-09-05T12:26:36.319Z,57.07
2018-09-05T12:29:08.124Z,58.66
2018-09-05T12:31:37.281Z,58.56
2018-09-05T12:34:06.525Z,58.11
2018-09-05T12:36:35.696Z,56.27
2018-09-05T12:39:07.965Z,56.55
2018-09-05T12:41:37.110Z,56.85
2018-09-05T12:44:06.280Z,56.88
2018-09-05T12:46:35.408Z,57.66
2018-09-05T12:49:04.677Z,55.80
2018-09-05T12:51:33.999Z,57.14
2018-09-05T12:54:03.193Z,56.52
2018-09-05T12:56:32.339Z,56.29
2018-09-05T12:59:01.545Z,56.47
2018-09-05T13:01:30.657Z,55.79
2018-09-05T13:03:59.789Z,55.71
2018-09-05T13:06:28.937Z,56.51
2018-09-05T13:08:58.217Z,55.99
2018-09-05T13:11:27.449Z,55.68
2018-09-05T13:13:56.490Z,55.45
2018-09-05T13:16:25.619Z,55.19
2018-09-05T13:18:54.881Z,53.73
2018-09-05T13:21:24.013Z,54.21
2018-09-05T13:23:53.153Z,53.32
2018-09-05T13:26:22.298Z,53.56
2018-09-05T13:28:51.447Z,51.27
2018-09-05T13:31:20.656Z,52.65
2018-09-05T13:33:49.798Z,53.31
2018-09-05T13:36:18.932Z,54.19
2018-09-05T13:38:48.061Z,55.09
2018-09-05T13:41:17.229Z,53.19
2018-09-05T13:43:46.384Z,55.09
2018-09-05T13:46:15.532Z,55.88
2018-09-05T13:48:44.758Z,54.99
2018-09-05T13:51:13.904Z,55.27
2018-09-05T13:53:43.049Z,54.49
2018-09-05T13:56:12.231Z,53.68
2018-09-05T13:58:41.616Z,56.07
2018-09-05T14:01:10.758Z,55.44
2018-09-05T14:03:39.907Z,53.80
2018-09-05T14:06:09.069Z,54.71
2018-09-05T14:08:38.251Z,55.52
2018-09-05T14:11:07.516Z,55.32
2018-09-05T14:13:36.765Z,55.44
2018-09-05T14:16:06.259Z,55.07
2018-09-05T14:18:35.438Z,53.50
2018-09-05T14:21:04.581Z,53.53
2018-09-05T14:23:33.705Z,53.58
2018-09-05T14:26:02.849Z,54.46
2018-09-05T14:28:31.981Z,52.58
2018-09-05T14:31:01.133Z,55.32
2018-09-05T14:33:30.273Z,53.70
2018-09-05T14:35:59.404Z,54.99
2018-09-05T14:38:28.595Z,55.13
2018-09-05T14:40:57.755Z,54.53
2018-09-05T14:43:26.900Z,53.72
2018-09-05T14:45:56.033Z,56.03
2018-09-05T14:48:25.202Z,54.30
2018-09-05T14:50:54.318Z,56.11
2018-09-05T14:53:23.452Z,54.89
2018-09-05T14:55:52.607Z,55.54
2018-09-05T14:58:21.773Z,58.11
2018-09-05T15:00:50.929Z,57.93
2018-09-05T15:03:20.062Z,58.15
2018-09-05T15:05:49.205Z,58.30
2018-09-05T15:08:18.336Z,59.55
2018-09-05T15:10:47.482Z,59.78
2018-09-05T15:13:16.616Z,57.95
2018-09-05T15:15:45.764Z,58.97
2018-09-05T15:18:15.320Z,59.04
2018-09-05T15:20:44.460Z,57.83
2018-09-05T15:23:13.649Z,58.70
2018-09-05T15:25:43.281Z,60.26
2018-09-05T15:28:12.413Z,59.11
2018-09-05T15:30:41.550Z,60.03
2018-09-05T15:33:10.693Z,59.61
2018-09-05T15:35:39.861Z,60.17
2018-09-05T15:38:09.009Z,60.19
2018-09-05T15:40:38.185Z,60.54
2018-09-05T15:43:07.300Z,62.03
2018-09-05T15:45:36.449Z,61.08
2018-09-05T15:48:05.800Z,61.03
2018-09-05T15:50:34.918Z,61.48
2018-09-05T15:53:04.040Z,61.90
2018-09-05T15:55:33.193Z,62.60
2018-09-05T15:58:02.338Z,62.86
2018-09-05T16:00:31.613Z,62.04
2018-09-05T16:03:00.785Z,62.37
2018-09-05T16:05:29.942Z,63.29
2018-09-05T16:07:59.161Z,63.46
2018-09-05T16:10:28.302Z,64.13
2018-09-05T16:12:57.437Z,64.02
2018-09-05T16:15:26.603Z,64.29
2018-09-05T16:17:55.794Z,62.96
2018-09-05T16:20:24.920Z,63.92
2018-09-05T16:22:54.049Z,64.46
2018-09-05T16:25:23.290Z,64.45
2018-09-05T16:27:52.457Z,64.46
2018-09-05T16:30:21.597Z,65.56
2018-09-05T16:32:50.761Z,65.03
2018-09-05T16:35:19.898Z,65.71
2018-09-05T16:37:49.083Z,65.70
2018-09-05T16:40:18.217Z,66.29
2018-09-05T16:42:47.353Z,67.28
2018-09-05T16:45:16.837Z,66.95
2018-09-05T16:47:45.965Z,66.43
2018-09-05T16:50:15.097Z,66.25
2018-09-05T16:52:44.345Z,67.38
2018-09-05T16:55:14.576Z,67.49
2018-09-05T16:57:43.779Z,67.39
2018-09-05T17:00:12.929Z,68.48
2018-09-05T17:02:42.094Z,67.59
2018-09-05T17:05:11.229Z,67.69
2018-09-05T17:07:43.266Z,67.66
2018-09-05T17:10:13.035Z,67.95
2018-09-05T17:12:43.226Z,69.01
2018-09-05T17:15:12.874Z,69.39
2018-09-05T17:17:42.512Z,70.47
2018-09-05T17:20:12.338Z,69.90
2018-09-05T17:22:41.933Z,70.97
2018-09-05T17:25:11.732Z,70.20
2018-09-05T17:27:41.567Z,72.08
2018-09-05T17:30:11.829Z,72.40
2018-09-05T17:32:42.029Z,70.83
2018-09-05T17:35:11.252Z,71.92
2018-09-05T17:37:40.377Z,71.31
2018-09-05T17:40:09.637Z,71.75
2018-09-05T17:42:38.772Z,72.90
2018-09-05T17:45:07.914Z,73.56
2018-09-05T17:47:37.076Z,73.80
2018-09-05T17:50:06.561Z,73.37
2018-09-05T17:52:35.683Z,74.23
2018-09-05T17:55:05.214Z,74.05
2018-09-05T17:57:34.359Z,74.39
2018-09-05T18:00:03.514Z,74.39
2018-09-05T18:02:32.658Z,74.71
2018-09-05T18:05:01.798Z,74.71
2018-09-05T18:07:30.961Z,75.09
2018-09-05T18:10:00.171Z,75.14
2018-09-05T18:12:29.265Z,75.90
2018-09-05T18:14:58.420Z,76.49
2018-09-05T18:17:27.597Z,76.46
2018-09-05T18:19:56.747Z,76.58
2018-09-05T18:22:25.881Z,76.15
2018-09-05T18:24:55.031Z,76.37
2018-09-05T18:27:24.182Z,77.39
2018-09-05T18:29:53.309Z,77.08
2018-09-05T18:32:22.443Z,77.35
2018-09-05T18:34:51.584Z,77.20
2018-09-05T18:37:20.765Z,78.23
2018-09-05T18:39:49.957Z,78.78
2018-09-05T18:42:19.109Z,77.90
2018-09-05T18:44:48.242Z,79.23
2018-09-05T18:47:17.402Z,79.64
2018-09-05T18:49:46.540Z,79.23
2018-09-05T18:52:15.690Z,79.31
2018-09-05T18:54:44.888Z,80.08
2018-09-05T18:57:13.997Z,80.14
2018-09-05T18:59:43.158Z,79.81
2018-09-05T19:02:12.333Z,79.80
2018-09-05T19:04:41.497Z,80.55
2018-09-05T19:07:10.716Z,80.52
2018-09-05T19:09:39.875Z,80.00
2018-09-05T19:12:09.069Z,80.77
2018-09-05T19:14:38.219Z,79.65
2018-09-05T19:17:07.381Z,80.44
2018-09-05T19:19:36.516Z,80.50
2018-09-05T19:22:05.989Z,80.16
2018-09-05T19:24:35.246Z,80.85
2018-09-05T19:27:04.378Z,80.37
2018-09-05T19:29:33.629Z,80.85
2018-09-05T19:32:02.829Z,81.08
2018-09-05T19:34:31.960Z,81.70
2018-09-05T19:37:01.141Z,81.89
2018-09-05T19:39:30.374Z,81.42
2018-09-05T19:41:59.504Z,81.63
2018-09-05T19:44:28.714Z,81.21
2018-09-05T19:46:57.997Z,81.72
2018-09-05T19:49:27.160Z,81.88
2018-09-05T19:51:56.283Z,81.90
2018-09-05T19:54:25.721Z,81.33
2018-09-05T19:56:55.057Z,81.69
2018-09-05T19:59:24.204Z,81.33
2018-09-05T20:01:53.433Z,81.80
2018-09-05T20:04:22.597Z,82.37
2018-09-05T20:06:51.902Z,81.74
2018-09-05T20:09:21.188Z,82.10
2018-09-05T20:11:50.713Z,82.48
2018-09-05T20:14:19.857Z,82.92
2018-09-05T20:16:49.039Z,81.89
2018-09-05T20:19:18.190Z,82.29
2018-09-05T20:21:47.373Z,81.86
2018-09-05T20:24:16.529Z,82.28
2018-09-05T20:26:45.681Z,83.11
2018-09-05T20:29:14.837Z,82.60
2018-09-05T20:31:43.980Z,82.64
2018-09-05T20:34:13.128Z,82.68
2018-09-05T20:36:42.260Z,83.37
2018-09-05T20:39:12.489Z,82.99
2018-09-05T20:41:42.012Z,83.56
2018-09-05T20:44:11.294Z,83.18
2018-09-05T20:46:40.590Z,83.38
2018-09-05T20:49:09.897Z,84.16
2018-09-05T20:51:39.080Z,83.86
2018-09-05T20:54:08.261Z,83.38
2018-09-05T20:56:37.402Z,84.13
2018-09-05T20:59:06.960Z,84.33
2018-09-05T21:01:36.134Z,83.25
2018-09-05T21:04:05.273Z,83.69
2018-09-05T21:06:34.465Z,83.70
2018-09-05T21:09:03.960Z,84.93
2018-09-05T21:11:33.097Z,84.04
2018-09-05T21:14:02.265Z,84.19
2018-09-05T21:16:31.400Z,84.81
2018-09-05T21:19:00.618Z,84.79
2018-09-05T21:21:29.756Z,84.69
2018-09-05T21:23:59.017Z,83.96
2018-09-05T21:26:28.265Z,84.61
2018-09-05T21:28:57.360Z,84.41
2018-09-05T21:31:26.565Z,84.65
2018-09-05T21:33:55.794Z,85.04
2018-09-05T21:36:24.980Z,84.21
2018-09-05T21:38:54.064Z,84.50
2018-09-05T21:41:23.205Z,84.67
2018-09-05T21:43:52.345Z,84.25
2018-09-05T21:46:21.493Z,85.20
2018-09-05T21:48:50.637Z,84.76
2018-09-05T21:51:19.767Z,84.02
2018-09-05T21:53:48.913Z,84.42
2018-09-05T21:56:18.054Z,84.21
2018-09-05T21:58:47.250Z,84.40
2018-09-05T22:01:18.914Z,84.72
2018-09-05T22:03:50.167Z,84.64
2018-09-05T22:06:19.293Z,84.94
2018-09-05T22:08:48.694Z,84.19
2018-09-05T22:11:23.290Z,84.76
2018-09-05T22:13:52.719Z,84.88
2018-09-05T22:16:21.986Z,84.73
2018-09-05T22:18:51.472Z,85.24
2018-09-05T22:21:20.620Z,84.96
2018-09-05T22:23:49.745Z,84.28
2018-09-05T22:26:18.890Z,84.82
2018-09-05T22:28:48.042Z,84.84
2018-09-05T22:31:17.177Z,85.21
2018-09-05T22:33:46.305Z,85.24
2018-09-05T22:36:15.450Z,84.78
2018-09-05T22:38:44.593Z,85.34
2018-09-05T22:41:13.721Z,84.95
2018-09-05T22:44:00.297Z,85.55
2018-09-05T22:46:47.153Z,85.10
2018-09-05T22:52:47.629Z,84.87
2018-09-05T22:55:58.536Z,84.97
2018-09-05T22:58:43.448Z,85.20
2018-09-05T23:01:31.409Z,84.94
2018-09-05T23:04:24.078Z,85.31
2018-09-05T23:08:43.947Z,85.20
2018-09-05T23:12:02.014Z,85.67
2018-09-05T23:14:48.381Z,85.65
2018-09-05T23:17:35.636Z,85.06
2018-09-05T23:20:30.810Z,85.50
2018-09-05T23:23:17.125Z,85.86
2018-09-05T23:25:46.294Z,85.55
2018-09-05T23:28:15.442Z,85.66
2018-09-05T23:30:44.573Z,85.22
2018-09-05T23:33:13.766Z,85.42
2018-09-05T23:35:42.901Z,85.46
2018-09-05T23:38:12.051Z,84.85
2018-09-05T23:40:41.186Z,84.63
2018-09-05T23:43:10.323Z,84.42
2018-09-05T23:45:39.464Z,83.66
2018-09-05T23:48:08.596Z,84.25
2018-09-05T23:50:37.781Z,83.96
2018-09-05T23:53:06.922Z,83.89
2018-09-05T23:55:36.449Z,83.67
2018-09-05T23:58:05.987Z,83.06
